createdAt,value
2018-08-16T00:00:33.427Z,6.87
2018-08-16T00:03:01.375Z,8.13
2018-08-16T00:05:29.207Z,9.90
2018-08-16T00:07:57.348Z,5.87
2018-08-16T00:10:25.074Z,8.13
2018-08-16T00:12:52.846Z,6.33
2018-08-16T00:15:21.582Z,8.00
2018-08-16T00:17:49.364Z,6.43
2018-08-16T00:20:17.328Z,6.77
2018-08-16T00:22:45.368Z,8.13
2018-08-16T00:25:13.682Z,8.13
2018-08-16T00:27:41.463Z,6.50
2018-08-16T00:30:11.775Z,5.90
2018-08-16T00:32:39.639Z,6.87
2018-08-16T00:35:07.755Z,7.03
2018-08-16T00:37:35.557Z,6.03
2018-08-16T00:40:04.528Z,7.27
2018-08-16T00:42:33.964Z,6.90
2018-08-16T00:45:02.592Z,9.00
2018-08-16T00:47:30.714Z,6.70
2018-08-16T00:49:58.462Z,6.70
2018-08-16T00:52:26.168Z,6.23
2018-08-16T00:54:53.863Z,5.70
2018-08-16T00:57:21.552Z,7.10
2018-08-16T00:59:49.263Z,6.90
2018-08-16T01:02:17.008Z,6.47
2018-08-16T01:04:44.688Z,6.97
2018-08-16T01:07:12.477Z,5.77
2018-08-16T01:09:40.158Z,8.50
2018-08-16T01:12:07.829Z,6.60
2018-08-16T01:14:35.487Z,7.00
2018-08-16T01:17:03.278Z,6.40
2018-08-16T01:19:31.000Z,6.07
2018-08-16T01:21:58.729Z,10.40
2018-08-16T01:24:26.502Z,5.90
2018-08-16T01:26:54.298Z,7.50
2018-08-16T01:29:22.083Z,6.93
2018-08-16T01:31:49.892Z,6.27
2018-08-16T01:34:17.592Z,7.20
2018-08-16T01:36:45.299Z,6.13
2018-08-16T01:39:12.965Z,10.90
2018-08-16T01:41:40.647Z,7.00
2018-08-16T01:44:08.318Z,6.47
2018-08-16T01:46:36.015Z,6.73
2018-08-16T01:49:08.874Z,7.13
2018-08-16T01:51:36.558Z,7.73
2018-08-16T01:54:04.961Z,7.97
2018-08-16T01:56:32.650Z,6.47
2018-08-16T01:59:00.310Z,6.47
2018-08-16T02:01:27.999Z,6.53
2018-08-16T02:03:55.702Z,6.33
2018-08-16T02:06:23.394Z,8.60
2018-08-16T02:08:51.096Z,7.40
2018-08-16T02:11:18.780Z,6.73
2018-08-16T02:13:46.494Z,6.73
2018-08-16T02:16:14.227Z,6.07
2018-08-16T02:18:41.912Z,8.53
2018-08-16T02:21:09.596Z,7.50
2018-08-16T02:23:37.270Z,6.40
2018-08-16T02:26:05.362Z,12.67
2018-08-16T02:28:33.052Z,8.73
2018-08-16T02:31:00.750Z,8.30
2018-08-16T02:33:28.459Z,7.93
2018-08-16T02:35:56.124Z,7.17
2018-08-16T02:38:23.799Z,7.40
2018-08-16T02:40:51.498Z,6.53
2018-08-16T02:43:19.226Z,6.73
2018-08-16T02:45:46.924Z,7.30
2018-08-16T02:48:14.620Z,5.77
2018-08-16T02:50:42.311Z,8.63
2018-08-16T02:53:09.953Z,7.43
2018-08-16T02:55:37.686Z,9.50
2018-08-16T02:58:05.435Z,11.83
2018-08-16T03:00:33.109Z,6.73
2018-08-16T03:03:00.820Z,8.90
2018-08-16T03:05:28.486Z,9.43
2018-08-16T03:07:56.261Z,6.77
2018-08-16T03:10:23.931Z,9.97
2018-08-16T03:12:51.662Z,11.40
2018-08-16T03:15:19.322Z,7.90
2018-08-16T03:17:47.079Z,8.20
2018-08-16T03:20:14.747Z,8.23
2018-08-16T03:22:42.417Z,7.40
2018-08-16T03:25:10.070Z,7.20
2018-08-16T03:27:37.737Z,7.93
2018-08-16T03:30:05.760Z,7.80
2018-08-16T03:32:33.456Z,7.83
2018-08-16T03:35:01.160Z,7.80
2018-08-16T03:37:28.884Z,13.10
2018-08-16T03:39:56.596Z,8.97
2018-08-16T03:42:24.366Z,8.03
2018-08-16T03:44:52.030Z,7.93
2018-08-16T03:47:19.660Z,7.20
2018-08-16T03:49:47.346Z,7.40
2018-08-16T03:52:15.035Z,8.23
2018-08-16T03:54:42.704Z,8.87
2018-08-16T03:57:10.394Z,7.83
2018-08-16T03:59:38.066Z,7.50
2018-08-16T04:02:05.775Z,7.27
2018-08-16T04:04:33.449Z,7.70
2018-08-16T04:07:01.164Z,7.17
2018-08-16T04:09:28.825Z,7.37
2018-08-16T04:11:56.495Z,8.03
2018-08-16T04:14:24.177Z,8.17
2018-08-16T04:16:51.864Z,7.37
2018-08-16T04:19:19.522Z,7.63
2018-08-16T04:21:47.177Z,7.37
2018-08-16T04:24:14.875Z,7.63
2018-08-16T04:26:42.546Z,7.50
2018-08-16T04:29:10.227Z,7.90
2018-08-16T04:31:37.925Z,7.37
2018-08-16T04:34:05.734Z,7.80
2018-08-16T04:36:33.417Z,8.27
2018-08-16T04:39:01.094Z,6.50
2018-08-16T04:41:28.839Z,8.13
2018-08-16T04:43:56.514Z,7.53
2018-08-16T04:46:24.227Z,8.23
2018-08-16T04:48:52.320Z,6.40
2018-08-16T04:51:19.996Z,8.03
2018-08-16T04:53:47.621Z,9.63
2018-08-16T04:56:15.294Z,7.93
2018-08-16T04:58:42.974Z,7.07
2018-08-16T05:01:10.765Z,8.30
2018-08-16T05:03:38.434Z,7.93
2018-08-16T05:06:06.174Z,8.13
2018-08-16T05:08:33.861Z,7.53
2018-08-16T05:11:01.576Z,8.03
2018-08-16T05:13:29.199Z,9.13
2018-08-16T05:15:56.902Z,7.63
2018-08-16T05:18:24.570Z,7.67
2018-08-16T05:20:52.242Z,9.17
2018-08-16T05:23:19.910Z,8.97
2018-08-16T05:25:47.614Z,8.33
2018-08-16T05:28:15.271Z,8.23
2018-08-16T05:30:42.985Z,8.63
2018-08-16T05:33:10.630Z,9.23
2018-08-16T05:35:38.348Z,8.33
2018-08-16T05:38:06.089Z,9.33
2018-08-16T05:40:33.778Z,9.53
2018-08-16T05:43:01.531Z,9.00
2018-08-16T05:45:29.212Z,8.20
2018-08-16T05:47:56.941Z,8.30
2018-08-16T05:50:24.722Z,7.30
2018-08-16T05:52:52.396Z,8.10
2018-08-16T05:55:20.127Z,8.03
2018-08-16T05:57:47.820Z,7.77
2018-08-16T06:00:15.588Z,8.53
2018-08-16T06:02:43.366Z,8.20
2018-08-16T06:05:11.689Z,8.60
2018-08-16T06:07:39.462Z,8.30
2018-08-16T06:10:08.618Z,7.80
2018-08-16T06:12:36.350Z,8.67
2018-08-16T06:15:05.089Z,11.87
2018-08-16T06:17:32.791Z,7.63
2018-08-16T06:20:00.431Z,7.80
2018-08-16T06:22:28.166Z,8.00
2018-08-16T06:24:55.811Z,7.40
2018-08-16T06:27:23.493Z,9.17
2018-08-16T06:29:51.227Z,8.53
2018-08-16T06:32:18.955Z,8.60
2018-08-16T06:34:46.678Z,7.70
2018-08-16T06:37:14.363Z,7.97
2018-08-16T06:39:42.025Z,8.83
2018-08-16T06:42:09.719Z,8.10
2018-08-16T06:44:37.367Z,8.13
2018-08-16T06:47:05.075Z,8.10
2018-08-16T06:49:32.752Z,7.27
2018-08-16T06:52:00.451Z,7.90
2018-08-16T06:54:28.099Z,7.83
2018-08-16T06:56:55.818Z,7.87
2018-08-16T06:59:23.504Z,8.30
2018-08-16T07:01:51.173Z,8.97
2018-08-16T07:04:19.066Z,7.77
2018-08-16T07:06:46.768Z,7.60
2018-08-16T07:09:14.450Z,9.20
2018-08-16T07:11:42.235Z,7.80
2018-08-16T07:14:09.958Z,7.87
2018-08-16T07:16:37.577Z,7.40
2018-08-16T07:19:05.302Z,8.00
2018-08-16T07:21:32.970Z,7.93
2018-08-16T07:24:00.652Z,8.50
2018-08-16T07:26:28.351Z,8.10
2018-08-16T07:28:55.994Z,7.93
2018-08-16T07:31:23.700Z,8.80
2018-08-16T07:33:51.412Z,8.27
2018-08-16T07:36:19.243Z,9.53
2018-08-16T07:38:47.046Z,10.43
2018-08-16T07:41:14.718Z,7.77
2018-08-16T07:43:42.435Z,9.53
2018-08-16T07:46:10.237Z,9.43
2018-08-16T07:48:37.910Z,9.20
2018-08-16T07:51:05.693Z,9.23
2018-08-16T07:53:33.439Z,7.73
2018-08-16T07:56:01.113Z,8.20
2018-08-16T07:58:28.895Z,8.90
2018-08-16T08:00:56.518Z,13.77
2018-08-16T08:03:24.210Z,8.13
2018-08-16T08:05:51.918Z,8.17
2018-08-16T08:08:19.643Z,7.87
2018-08-16T08:10:47.413Z,9.13
2018-08-16T08:13:15.106Z,8.03
2018-08-16T08:15:42.782Z,8.60
2018-08-16T08:18:10.517Z,7.20
2018-08-16T08:20:38.252Z,8.07
2018-08-16T08:23:06.066Z,6.10
2018-08-16T08:25:33.853Z,6.83
2018-08-16T08:28:01.467Z,7.30
2018-08-16T08:30:29.166Z,9.20
2018-08-16T08:32:56.850Z,7.33
2018-08-16T08:35:24.523Z,8.93
2018-08-16T08:37:59.864Z,6.10
2018-08-16T08:40:27.539Z,6.83
2018-08-16T08:42:55.178Z,7.00
2018-08-16T08:45:22.903Z,7.23
2018-08-16T08:47:56.540Z,6.90
2018-08-16T08:50:25.316Z,5.47
2018-08-16T08:52:57.476Z,6.30
2018-08-16T08:55:36.415Z,5.07
2018-08-16T08:58:15.207Z,5.90
2018-08-16T09:00:42.945Z,5.97
2018-08-16T09:03:10.581Z,5.90
2018-08-16T09:05:38.296Z,5.83
2018-08-16T09:08:05.954Z,5.60
2018-08-16T09:10:54.678Z,5.73
2018-08-16T09:13:34.700Z,5.43
2018-08-16T09:16:06.228Z,6.43
2018-08-16T09:18:33.904Z,7.07
2018-08-16T09:21:01.598Z,4.43
2018-08-16T09:23:29.285Z,4.70
2018-08-16T09:25:57.045Z,4.70
2018-08-16T09:28:24.702Z,5.30
2018-08-16T09:31:03.837Z,6.90
2018-08-16T09:33:42.805Z,5.73
2018-08-16T09:36:10.499Z,6.37
2018-08-16T09:38:38.140Z,5.57
2018-08-16T09:41:05.890Z,7.40
2018-08-16T09:43:33.567Z,4.20
2018-08-16T09:47:12.952Z,4.40
2018-08-16T09:49:49.875Z,4.70
2018-08-16T09:52:18.080Z,5.73
2018-08-16T09:54:45.866Z,3.43
2018-08-16T09:57:14.114Z,10.50
2018-08-16T09:59:41.882Z,4.77
2018-08-16T10:02:11.236Z,6.57
2018-08-16T10:04:38.947Z,3.90
2018-08-16T10:07:06.804Z,3.60
2018-08-16T10:09:34.552Z,5.80
2018-08-16T10:12:02.857Z,4.10
2018-08-16T10:14:30.642Z,14.70
2018-08-16T10:16:58.464Z,3.40
2018-08-16T10:19:26.761Z,3.50
2018-08-16T10:21:54.437Z,4.70
2018-08-16T10:24:22.384Z,2.50
2018-08-16T10:26:50.159Z,6.50
2018-08-16T10:29:17.817Z,4.70
2018-08-16T10:31:45.546Z,9.77
2018-08-16T10:34:13.251Z,4.57
2018-08-16T10:36:40.941Z,10.00
2018-08-16T10:39:10.718Z,3.43
2018-08-16T10:41:38.504Z,4.90
2018-08-16T10:44:06.345Z,5.40
2018-08-16T10:46:34.050Z,3.70
2018-08-16T10:51:55.107Z,14.47
2018-08-16T10:54:22.812Z,3.93
2018-08-16T10:56:50.494Z,4.37
2018-08-16T10:59:18.183Z,12.83
2018-08-16T11:01:46.006Z,21.13
2018-08-16T11:04:13.667Z,6.63
2018-08-16T11:06:41.475Z,3.80
2018-08-16T11:09:09.713Z,7.27
2018-08-16T11:11:37.855Z,5.47
2018-08-16T11:14:05.574Z,4.53
2018-08-16T11:16:33.269Z,3.80
2018-08-16T11:19:01.090Z,5.43
2018-08-16T11:21:28.716Z,4.23
2018-08-16T11:23:56.398Z,3.33
2018-08-16T11:26:24.073Z,3.40
2018-08-16T11:28:51.743Z,3.80
2018-08-16T11:31:19.901Z,3.47
2018-08-16T11:33:47.637Z,6.33
2018-08-16T11:36:15.332Z,3.10
2018-08-16T11:38:42.978Z,3.50
2018-08-16T11:41:10.693Z,3.87
2018-08-16T11:43:38.342Z,3.20
2018-08-16T11:46:06.501Z,3.10
2018-08-16T11:48:34.190Z,3.37
2018-08-16T11:51:01.919Z,4.73
2018-08-16T11:53:29.598Z,2.97
2018-08-16T11:55:57.269Z,3.43
2018-08-16T11:58:24.957Z,2.80
2018-08-16T12:00:52.790Z,3.37
2018-08-16T12:03:20.516Z,3.70
2018-08-16T12:05:48.218Z,2.97
2018-08-16T12:08:15.934Z,2.83
2018-08-16T12:10:43.618Z,3.13
2018-08-16T12:13:11.323Z,4.00
2018-08-16T12:15:38.997Z,3.57
2018-08-16T12:18:06.687Z,4.03
2018-08-16T12:20:34.381Z,3.30
2018-08-16T12:23:02.181Z,2.70
2018-08-16T12:25:29.822Z,3.30
2018-08-16T12:27:57.537Z,3.60
2018-08-16T12:30:25.310Z,3.50
2018-08-16T12:32:52.998Z,4.33
2018-08-16T12:35:20.693Z,4.20
2018-08-16T12:37:48.479Z,3.50
2018-08-16T12:40:16.079Z,3.40
2018-08-16T12:42:43.775Z,3.37
2018-08-16T12:45:11.587Z,3.40
2018-08-16T12:47:39.399Z,3.80
2018-08-16T12:50:08.174Z,3.30
2018-08-16T12:52:35.897Z,3.07
2018-08-16T12:55:03.903Z,3.33
2018-08-16T12:57:31.669Z,3.33
2018-08-16T12:59:59.449Z,3.50
2018-08-16T13:02:27.094Z,3.20
2018-08-16T13:04:54.788Z,7.20
2018-08-16T13:07:22.544Z,3.50
2018-08-16T13:09:50.221Z,2.70
2018-08-16T13:12:17.980Z,3.00
2018-08-16T13:14:45.801Z,2.90
2018-08-16T13:17:13.685Z,3.10
2018-08-16T13:19:41.403Z,3.00
2018-08-16T13:22:09.250Z,3.10
2018-08-16T13:24:36.948Z,3.30
2018-08-16T13:27:05.167Z,3.03
2018-08-16T13:29:32.875Z,3.43
2018-08-16T13:32:00.612Z,2.90
2018-08-16T13:34:28.264Z,2.77
2018-08-16T13:36:55.934Z,3.10
2018-08-16T13:39:23.602Z,3.13
2018-08-16T13:41:51.315Z,3.37
2018-08-16T13:44:19.029Z,3.33
2018-08-16T13:46:46.701Z,3.23
2018-08-16T13:49:14.374Z,9.20
2018-08-16T13:51:42.059Z,3.67
2018-08-16T13:54:09.778Z,4.23
2018-08-16T13:56:37.434Z,3.03
2018-08-16T13:59:05.625Z,3.63
2018-08-16T14:01:33.306Z,2.90
2018-08-16T14:04:01.008Z,2.87
2018-08-16T14:06:28.697Z,4.50
2018-08-16T14:08:56.684Z,2.87
2018-08-16T14:11:24.459Z,3.00
2018-08-16T14:13:52.138Z,2.67
2018-08-16T14:16:19.807Z,3.70
2018-08-16T14:18:48.188Z,3.50
2018-08-16T14:21:16.047Z,2.80
2018-08-16T14:23:43.842Z,2.97
2018-08-16T14:26:11.886Z,2.90
2018-08-16T14:28:39.695Z,2.87
2018-08-16T14:31:07.417Z,3.33
2018-08-16T14:33:35.183Z,2.87
2018-08-16T14:36:02.882Z,2.87
2018-08-16T14:38:30.557Z,3.70
2018-08-16T14:40:58.371Z,2.53
2018-08-16T14:43:26.173Z,3.03
2018-08-16T14:45:53.850Z,2.60
2018-08-16T14:48:21.495Z,2.87
2018-08-16T14:50:49.184Z,2.73
2018-08-16T14:53:17.228Z,2.93
2018-08-16T14:55:44.977Z,3.00
2018-08-16T14:58:12.679Z,4.50
2018-08-16T15:00:40.419Z,3.47
2018-08-16T15:03:08.727Z,3.00
2018-08-16T15:05:36.627Z,5.77
2018-08-16T15:08:04.324Z,2.50
2018-08-16T15:10:32.109Z,4.00
2018-08-16T15:12:59.891Z,3.63
2018-08-16T15:15:27.646Z,2.90
2018-08-16T15:17:55.419Z,2.57
2018-08-16T15:20:23.159Z,2.73
2018-08-16T15:22:50.881Z,4.53
2018-08-16T15:25:18.647Z,2.97
2018-08-16T15:27:46.374Z,2.40
2018-08-16T15:30:14.168Z,3.00
2018-08-16T15:32:41.850Z,2.93
2018-08-16T15:35:09.571Z,3.37
2018-08-16T15:37:37.391Z,2.83
2018-08-16T15:40:05.220Z,4.90
2018-08-16T15:42:32.966Z,2.70
2018-08-16T15:45:00.690Z,2.90
2018-08-16T15:47:28.365Z,3.00
2018-08-16T15:49:56.030Z,3.00
2018-08-16T15:52:23.739Z,5.13
2018-08-16T15:54:51.413Z,4.47
2018-08-16T15:57:19.210Z,2.70
2018-08-16T15:59:47.014Z,2.83
2018-08-16T16:02:14.781Z,3.33
2018-08-16T16:04:42.528Z,2.70
2018-08-16T16:09:56.190Z,2.70
2018-08-16T16:12:23.909Z,3.23
2018-08-16T16:14:51.540Z,4.13
2018-08-16T16:17:19.264Z,2.40
2018-08-16T16:19:46.930Z,2.90
2018-08-16T16:22:14.628Z,2.90
2018-08-16T16:24:48.944Z,2.80
2018-08-16T16:27:16.641Z,2.97
2018-08-16T16:29:44.290Z,2.80
2018-08-16T16:32:12.023Z,3.27
2018-08-16T16:34:39.726Z,3.00
2018-08-16T16:39:42.215Z,3.27
2018-08-16T16:42:09.945Z,2.87
2018-08-16T16:44:37.586Z,2.47
2018-08-16T16:47:06.001Z,2.83
2018-08-16T16:49:33.662Z,3.00
2018-08-16T16:52:01.387Z,3.50
2018-08-16T16:54:29.078Z,3.50
2018-08-16T16:56:56.856Z,5.13
2018-08-16T16:59:24.565Z,2.93
2018-08-16T17:01:52.262Z,3.97
2018-08-16T17:04:19.948Z,3.23
2018-08-16T17:06:47.583Z,4.03
2018-08-16T17:09:15.227Z,3.50
2018-08-16T17:11:42.870Z,3.13
2018-08-16T17:14:11.356Z,2.53
2018-08-16T17:16:39.098Z,2.77
2018-08-16T17:19:06.833Z,3.87
2018-08-16T17:21:34.719Z,2.97
2018-08-16T17:24:02.391Z,3.70
2018-08-16T17:29:22.942Z,3.20
2018-08-16T17:31:50.734Z,3.40
2018-08-16T17:34:18.390Z,2.50
2018-08-16T17:36:46.056Z,2.53
2018-08-16T17:39:13.730Z,2.80
2018-08-16T17:41:41.357Z,3.13
2018-08-16T17:44:09.078Z,7.20
2018-08-16T17:46:36.749Z,4.50
2018-08-16T17:49:04.442Z,3.20
2018-08-16T17:51:32.181Z,5.50
2018-08-16T17:53:59.902Z,6.30
2018-08-16T17:56:27.536Z,4.10
2018-08-16T17:58:55.218Z,3.13
2018-08-16T18:01:22.851Z,3.10
2018-08-16T18:03:50.587Z,3.80
2018-08-16T18:06:18.286Z,3.40
2018-08-16T18:08:45.998Z,3.23
2018-08-16T18:11:13.679Z,3.50
2018-08-16T18:13:41.539Z,5.47
2018-08-16T18:16:09.262Z,3.10
2018-08-16T18:18:37.067Z,3.80
2018-08-16T18:21:04.783Z,4.30
2018-08-16T18:23:32.459Z,3.17
2018-08-16T18:26:00.146Z,7.43
2018-08-16T18:28:27.854Z,4.80
2018-08-16T18:30:55.538Z,4.43
2018-08-16T18:33:23.303Z,4.40
2018-08-16T18:35:50.985Z,4.20
2018-08-16T18:38:18.729Z,5.23
2018-08-16T18:40:46.366Z,5.13
2018-08-16T18:43:14.093Z,3.33
2018-08-16T18:45:41.767Z,4.47
2018-08-16T18:48:09.502Z,6.00
2018-08-16T18:50:37.474Z,6.50
2018-08-16T18:53:05.391Z,5.00
2018-08-16T18:55:33.180Z,8.13
2018-08-16T18:58:01.011Z,5.40
2018-08-16T19:00:28.844Z,5.57
2018-08-16T19:02:56.549Z,6.73
2018-08-16T19:05:24.440Z,6.50
2018-08-16T19:07:52.162Z,7.07
2018-08-16T19:10:19.952Z,3.97
2018-08-16T19:12:47.893Z,4.30
2018-08-16T19:15:15.564Z,3.67
2018-08-16T19:17:43.254Z,4.13
2018-08-16T19:20:10.935Z,3.90
2018-08-16T19:22:38.685Z,7.73
2018-08-16T19:25:06.882Z,4.23
2018-08-16T19:27:34.926Z,5.30
2018-08-16T19:30:02.810Z,4.30
2018-08-16T19:32:30.570Z,4.40
2018-08-16T19:34:58.277Z,4.43
2018-08-16T19:37:26.118Z,6.00
2018-08-16T19:39:53.819Z,5.00
2018-08-16T19:42:21.499Z,5.63
2018-08-16T19:44:49.368Z,7.63
2018-08-16T19:47:17.017Z,4.20
2018-08-16T19:49:44.704Z,4.50
2018-08-16T19:52:12.466Z,6.27
2018-08-16T19:54:40.146Z,5.63
2018-08-16T19:57:07.917Z,5.07
2018-08-16T19:59:35.584Z,5.23
2018-08-16T20:02:03.372Z,4.30
2018-08-16T20:04:31.054Z,3.87
2018-08-16T20:06:58.917Z,4.83
2018-08-16T20:09:26.605Z,6.60
2018-08-16T20:11:54.288Z,4.60
2018-08-16T20:14:22.027Z,4.47
2018-08-16T20:16:49.667Z,7.20
2018-08-16T20:19:17.361Z,5.90
2018-08-16T20:21:44.988Z,4.47
2018-08-16T20:24:12.725Z,6.50
2018-08-16T20:26:40.333Z,5.77
2018-08-16T20:29:08.035Z,5.10
2018-08-16T20:31:35.738Z,5.13
2018-08-16T20:34:03.438Z,4.87
2018-08-16T20:36:31.498Z,4.57
2018-08-16T20:38:59.215Z,6.60
2018-08-16T20:41:26.902Z,5.90
2018-08-16T20:43:54.550Z,5.03
2018-08-16T20:46:22.211Z,4.80
2018-08-16T20:48:49.871Z,7.03
2018-08-16T20:51:17.610Z,5.10
2018-08-16T20:53:45.317Z,4.23
2018-08-16T20:56:12.988Z,5.43
2018-08-16T20:58:40.639Z,5.57
2018-08-16T21:01:08.358Z,7.67
2018-08-16T21:03:35.958Z,6.73
2018-08-16T21:06:04.891Z,4.60
2018-08-16T21:08:32.510Z,10.00
2018-08-16T21:11:00.334Z,6.70
2018-08-16T21:13:28.092Z,8.90
2018-08-16T21:15:56.128Z,4.67
2018-08-16T21:18:23.903Z,5.87
2018-08-16T21:20:51.865Z,6.47
2018-08-16T21:23:19.626Z,5.33
2018-08-16T21:25:47.398Z,6.00
2018-08-16T21:28:15.045Z,4.60
2018-08-16T21:30:42.703Z,6.37
2018-08-16T21:33:10.579Z,6.10
2018-08-16T21:35:38.274Z,6.33
2018-08-16T21:38:06.015Z,7.00
2018-08-16T21:40:33.681Z,4.60
2018-08-16T21:43:01.575Z,8.07
2018-08-16T21:45:29.297Z,5.90
2018-08-16T21:47:57.070Z,5.33
2018-08-16T21:50:24.714Z,4.73
2018-08-16T21:52:52.352Z,8.07
2018-08-16T21:55:20.022Z,4.87
2018-08-16T21:57:47.675Z,5.30
2018-08-16T22:00:55.255Z,6.97
2018-08-16T22:03:24.354Z,9.43
2018-08-16T22:05:58.953Z,5.03
2018-08-16T22:08:42.136Z,6.17
2018-08-16T22:11:10.103Z,5.40
2018-08-16T22:13:38.054Z,5.30
2018-08-16T22:16:05.849Z,5.10
2018-08-16T22:18:33.565Z,5.90
2018-08-16T22:21:01.251Z,5.80
2018-08-16T22:23:28.915Z,6.03
2018-08-16T22:25:56.605Z,4.87
2018-08-16T22:28:24.309Z,4.93
2018-08-16T22:30:51.966Z,4.83
2018-08-16T22:33:19.624Z,6.53
2018-08-16T22:35:47.272Z,5.93
2018-08-16T22:38:15.023Z,5.57
2018-08-16T22:40:42.725Z,6.03
2018-08-16T22:43:10.381Z,6.47
2018-08-16T22:45:38.066Z,5.30
2018-08-16T22:48:05.984Z,5.27
2018-08-16T22:50:33.686Z,5.07
2018-08-16T22:53:01.403Z,4.60
2018-08-16T22:55:29.038Z,5.27
2018-08-16T22:57:56.765Z,6.63
2018-08-16T23:00:24.422Z,6.00
2018-08-16T23:02:52.085Z,4.70
2018-08-16T23:05:19.796Z,6.07
2018-08-16T23:07:47.468Z,6.80
2018-08-16T23:10:15.206Z,5.10
2018-08-16T23:12:42.867Z,5.40
2018-08-16T23:15:10.582Z,5.37
2018-08-16T23:17:38.235Z,6.10
2018-08-16T23:20:06.684Z,4.90
2018-08-16T23:22:34.384Z,4.83
2018-08-16T23:25:02.065Z,4.63
2018-08-16T23:27:29.722Z,6.60
2018-08-16T23:29:57.822Z,5.17
2018-08-16T23:32:25.499Z,5.97
2018-08-16T23:34:53.214Z,6.00
2018-08-16T23:37:20.933Z,5.73
2018-08-16T23:39:48.634Z,6.10
2018-08-16T23:42:16.454Z,7.30
2018-08-16T23:44:44.222Z,6.40
2018-08-16T23:47:11.878Z,7.33
2018-08-16T23:49:39.544Z,5.53
2018-08-16T23:52:07.297Z,6.13
2018-08-16T23:54:35.030Z,5.60
2018-08-16T23:57:02.734Z,5.40
2018-08-16T23:59:30.390Z,7.90
